createdAt,value
2022-08-21T03:34:11.169Z,43.50
2022-08-21T03:36:38.302Z,47.25
2022-08-21T03:39:05.236Z,52.75
2022-08-21T03:41:32.272Z,44.05
2022-08-21T03:44:00.139Z,41.22
2022-08-21T03:46:26.906Z,48.63
2022-08-21T03:48:53.773Z,40.03
2022-08-21T03:51:20.922Z,32.63
2022-08-21T03:53:47.746Z,32.15
2022-08-21T03:56:14.650Z,31.40
2022-08-21T03:58:41.832Z,37.38
2022-08-21T04:01:08.996Z,31.77
2022-08-21T04:03:37.412Z,32.40
2022-08-21T04:06:05.051Z,37.25
2022-08-21T04:08:31.889Z,35.80
2022-08-21T04:10:59.564Z,20.58
2022-08-21T04:13:29.032Z,22.27
2022-08-21T04:15:56.939Z,27.02
2022-08-21T04:18:23.837Z,31.95
2022-08-21T04:20:53.724Z,29.60
2022-08-21T04:23:23.997Z,31.95
2022-08-21T04:25:52.901Z,30.20
2022-08-21T04:28:19.812Z,24.25
2022-08-21T04:30:46.930Z,18.73
2022-08-21T04:33:13.965Z,24.10
2022-08-21T04:35:40.828Z,26.23
2022-08-21T04:38:07.635Z,21.85
2022-08-21T04:40:34.684Z,17.90
2022-08-21T04:43:08.657Z,22.27
2022-08-21T04:45:39.686Z,26.88
2022-08-21T04:48:13.911Z,29.08
2022-08-21T04:51:07.372Z,19.90
2022-08-21T04:53:42.998Z,21.85
2022-08-21T04:56:14.257Z,18.48
2022-08-21T04:58:42.817Z,21.48
2022-08-21T05:01:14.629Z,15.35
2022-08-21T05:03:42.152Z,24.35
2022-08-21T05:06:13.094Z,20.67
2022-08-21T05:08:41.279Z,19.20
2022-08-21T05:11:08.141Z,16.98
2022-08-21T05:13:36.687Z,19.75
2022-08-21T05:16:04.279Z,18.50
2022-08-21T05:18:31.119Z,19.63
2022-08-21T05:20:58.087Z,20.00
2022-08-21T05:23:25.971Z,20.10
2022-08-21T05:25:56.903Z,18.92
2022-08-21T05:28:24.558Z,13.38
2022-08-21T05:30:54.256Z,15.23
2022-08-21T05:33:21.070Z,20.52
2022-08-21T05:35:51.919Z,20.98
2022-08-21T05:38:19.422Z,14.70
2022-08-21T05:40:47.480Z,19.50
2022-08-21T05:43:14.499Z,16.10
2022-08-21T05:45:43.770Z,18.00
2022-08-21T05:48:24.033Z,21.70
2022-08-21T05:50:52.727Z,16.77
2022-08-21T05:53:22.419Z,18.15
2022-08-21T05:55:49.698Z,19.60
2022-08-21T05:58:19.532Z,16.10
2022-08-21T06:00:48.197Z,20.55
2022-08-21T06:03:26.944Z,21.05
2022-08-21T06:05:54.401Z,19.50
2022-08-21T06:08:22.402Z,18.13
2022-08-21T06:10:51.632Z,21.63
2022-08-21T06:13:20.614Z,19.42
2022-08-21T06:15:47.710Z,16.00
2022-08-21T06:18:15.035Z,18.63
2022-08-21T06:20:42.764Z,20.52
2022-08-21T06:23:10.394Z,18.25
2022-08-21T06:25:37.393Z,22.55
2022-08-21T06:28:09.370Z,18.17
2022-08-21T06:30:38.297Z,16.90
2022-08-21T06:33:05.186Z,18.50
2022-08-21T06:35:32.040Z,19.42
2022-08-21T06:37:59.916Z,19.15
2022-08-21T06:40:29.986Z,16.30
2022-08-21T06:42:59.428Z,22.85
2022-08-21T06:45:32.170Z,23.07
2022-08-21T06:47:59.996Z,22.42
2022-08-21T06:50:26.735Z,21.17
2022-08-21T06:53:01.747Z,18.42
2022-08-21T06:55:29.306Z,15.88
2022-08-21T06:57:56.172Z,15.82
2022-08-21T07:00:23.792Z,19.20
2022-08-21T07:02:50.546Z,17.80
2022-08-21T07:05:18.810Z,18.35
2022-08-21T07:07:46.689Z,15.32
2022-08-21T07:10:22.753Z,18.65
2022-08-21T07:12:52.563Z,20.27
2022-08-21T07:15:27.882Z,16.13
2022-08-21T07:17:54.920Z,15.27
2022-08-21T07:20:21.683Z,16.98
2022-08-21T07:22:48.466Z,23.33
2022-08-21T07:25:15.300Z,15.93
2022-08-21T07:27:42.048Z,15.38
2022-08-21T07:30:09.359Z,18.70
2022-08-21T07:32:36.123Z,17.83
2022-08-21T07:35:03.964Z,17.30
2022-08-21T07:37:30.675Z,13.73
2022-08-21T07:39:57.673Z,18.85
2022-08-21T07:42:24.672Z,11.93
2022-08-21T07:44:55.307Z,16.40
2022-08-21T07:47:41.898Z,13.93
2022-08-21T07:50:12.076Z,18.45
2022-08-21T07:52:40.010Z,13.43
2022-08-21T07:55:08.024Z,13.55
2022-08-21T07:57:34.911Z,13.70
2022-08-21T08:00:02.030Z,21.17
2022-08-21T08:02:39.310Z,14.30
2022-08-21T08:05:08.965Z,15.13
2022-08-21T08:07:36.405Z,15.48
2022-08-21T08:10:04.743Z,13.68
2022-08-21T08:12:31.655Z,12.85
2022-08-21T08:14:59.689Z,15.88
2022-08-21T08:17:27.044Z,12.25
2022-08-21T08:19:54.797Z,14.07
2022-08-21T08:22:24.947Z,10.30
2022-08-21T08:24:53.539Z,10.80
2022-08-21T08:27:21.489Z,13.27
2022-08-21T08:29:48.576Z,11.27
2022-08-21T08:32:16.219Z,15.27
2022-08-21T08:34:42.969Z,16.60
2022-08-21T08:37:10.946Z,11.95
2022-08-21T08:39:39.019Z,8.77
2022-08-21T08:42:32.850Z,21.95
2022-08-21T08:45:07.302Z,12.07
2022-08-21T08:47:38.450Z,12.93
2022-08-21T08:50:13.840Z,10.52
2022-08-21T08:52:49.078Z,9.23
2022-08-21T08:55:25.357Z,15.20
2022-08-21T08:57:55.510Z,14.27
2022-08-21T09:00:23.974Z,10.68
2022-08-21T09:02:55.432Z,11.82
2022-08-21T09:05:30.341Z,10.27
2022-08-21T09:08:20.665Z,11.32
2022-08-21T09:11:11.625Z,9.07
2022-08-21T09:13:38.819Z,13.65
2022-08-21T09:16:43.178Z,14.75
2022-08-21T09:19:24.980Z,13.60
2022-08-21T09:22:06.103Z,11.32
2022-08-21T09:24:38.350Z,10.88
2022-08-21T09:27:11.780Z,12.85
2022-08-21T09:29:41.830Z,9.07
2022-08-21T09:32:20.660Z,12.15
2022-08-21T09:35:06.647Z,15.63
2022-08-21T09:37:36.745Z,12.15
2022-08-21T09:40:28.894Z,12.18
2022-08-21T09:42:59.027Z,15.52
2022-08-21T09:45:26.201Z,13.32
2022-08-21T09:47:53.347Z,18.92
2022-08-21T09:50:27.861Z,12.60
2022-08-21T09:53:01.308Z,15.93
2022-08-21T09:58:21.995Z,17.25
2022-08-21T10:01:01.780Z,10.98
2022-08-21T10:03:28.648Z,17.23
2022-08-21T10:06:00.443Z,12.43
2022-08-21T10:08:29.950Z,14.65
2022-08-21T10:11:05.860Z,14.52
2022-08-21T10:13:52.927Z,13.27
2022-08-21T10:16:58.046Z,15.27
2022-08-21T10:19:44.720Z,17.35
2022-08-21T10:22:23.789Z,15.00
2022-08-21T10:25:02.957Z,21.05
2022-08-21T10:27:35.760Z,14.63
2022-08-21T10:30:20.594Z,20.17
2022-08-21T10:33:16.992Z,13.85
2022-08-21T10:35:56.428Z,17.13
2022-08-21T10:38:55.362Z,18.08
2022-08-21T10:42:06.251Z,17.05
2022-08-21T10:44:54.257Z,16.90
2022-08-21T10:47:45.948Z,16.98
2022-08-21T10:50:31.031Z,16.77
2022-08-21T10:53:35.312Z,18.48
2022-08-21T10:56:36.726Z,13.50
2022-08-21T10:59:19.423Z,17.75
2022-08-21T11:02:04.942Z,17.08
2022-08-21T11:04:49.463Z,15.55
2022-08-21T11:07:26.471Z,18.15
2022-08-21T11:10:02.094Z,18.67
2022-08-21T11:12:41.896Z,16.67
2022-08-21T11:15:32.917Z,18.80
2022-08-21T11:18:20.169Z,15.95
2022-08-21T11:21:10.319Z,13.77
2022-08-21T11:23:50.471Z,13.30
2022-08-21T11:26:38.197Z,12.13
2022-08-21T11:29:18.085Z,20.73
2022-08-21T11:32:08.837Z,14.55
2022-08-21T11:35:14.275Z,14.15
2022-08-21T11:37:51.969Z,18.30
2022-08-21T11:40:37.203Z,19.10
2022-08-21T11:43:29.221Z,34.33
2022-08-21T11:46:00.899Z,12.65
2022-08-21T11:48:52.679Z,18.20
2022-08-21T11:51:27.947Z,16.73
2022-08-21T11:54:07.476Z,17.48
2022-08-21T11:56:34.317Z,19.00
2022-08-21T11:59:05.965Z,15.90
2022-08-21T12:01:41.802Z,20.13
2022-08-21T12:04:19.612Z,17.13
2022-08-21T12:06:46.555Z,17.30
2022-08-21T12:09:25.376Z,11.70
2022-08-21T12:12:25.049Z,17.95
2022-08-21T12:15:04.745Z,9.93
2022-08-21T12:17:40.709Z,16.75
2022-08-21T12:20:22.776Z,10.52
2022-08-21T12:22:54.453Z,16.92
2022-08-21T12:25:23.318Z,13.07
2022-08-21T12:28:03.036Z,14.10
2022-08-21T12:30:29.905Z,13.30
2022-08-21T12:32:59.030Z,14.77
2022-08-21T12:35:50.281Z,27.02
2022-08-21T12:38:27.537Z,19.90
2022-08-21T12:41:06.912Z,22.90
2022-08-21T12:43:43.447Z,17.90
2022-08-21T12:46:21.377Z,17.03
2022-08-21T12:49:26.848Z,23.15
2022-08-21T12:52:18.011Z,18.85
2022-08-21T12:54:45.730Z,14.02
2022-08-21T12:57:31.100Z,11.40
2022-08-21T13:00:13.145Z,15.98
2022-08-21T13:02:47.460Z,18.20
2022-08-21T13:05:17.391Z,17.88
2022-08-21T13:07:53.278Z,14.07
2022-08-21T13:10:40.255Z,13.10
2022-08-21T13:13:13.339Z,15.85
2022-08-21T13:15:47.741Z,24.88
2022-08-21T13:18:25.319Z,10.88
2022-08-21T13:20:53.702Z,12.77
2022-08-21T13:23:29.421Z,11.88
2022-08-21T13:25:57.713Z,16.88
2022-08-21T13:28:34.095Z,16.33
2022-08-21T13:31:02.662Z,14.98
2022-08-21T13:33:37.399Z,14.25
2022-08-21T13:36:27.129Z,16.20
2022-08-21T13:38:55.387Z,15.70
2022-08-21T13:41:35.595Z,12.80
2022-08-21T13:44:05.817Z,15.32
2022-08-21T13:46:37.658Z,21.92
2022-08-21T13:49:07.093Z,13.88
2022-08-21T13:51:34.817Z,14.80
2022-08-21T13:54:01.893Z,10.93
2022-08-21T13:56:32.508Z,12.38
2022-08-21T13:59:02.387Z,13.68
2022-08-21T14:01:33.046Z,16.70
2022-08-21T14:04:05.801Z,16.30
2022-08-21T14:06:38.669Z,13.02
2022-08-21T14:09:22.744Z,12.32
2022-08-21T14:11:49.959Z,13.00
2022-08-21T14:14:46.510Z,13.30
2022-08-21T14:17:34.783Z,16.25
2022-08-21T14:20:01.892Z,14.82
2022-08-21T14:22:39.447Z,10.05
2022-08-21T14:25:07.863Z,16.90
2022-08-21T14:27:38.038Z,13.77
2022-08-21T14:30:19.180Z,12.52
2022-08-21T14:32:46.754Z,12.90
2022-08-21T14:35:14.778Z,13.45
2022-08-21T14:37:46.547Z,17.40
2022-08-21T14:40:18.216Z,15.02
2022-08-21T14:42:46.005Z,14.32
2022-08-21T14:45:21.229Z,13.50
2022-08-21T14:47:51.655Z,16.75
2022-08-21T14:50:18.748Z,16.25
2022-08-21T14:52:46.691Z,14.00
2022-08-21T14:55:15.475Z,15.95
2022-08-21T14:57:50.977Z,18.75
2022-08-21T15:00:23.959Z,15.95
2022-08-21T15:02:54.011Z,15.85
2022-08-21T15:05:26.814Z,15.55
2022-08-21T15:07:59.998Z,15.57
2022-08-21T15:10:27.215Z,17.45
2022-08-21T15:12:54.282Z,13.73
2022-08-21T15:15:21.174Z,16.20
2022-08-21T15:17:48.692Z,14.77
2022-08-21T15:20:16.085Z,17.27
2022-08-21T15:22:47.845Z,18.23
2022-08-21T15:27:42.134Z,16.00
2022-08-21T15:30:09.867Z,12.50
2022-08-21T15:32:36.677Z,12.57
2022-08-21T15:35:04.420Z,20.58
2022-08-21T15:37:31.383Z,11.20
2022-08-21T15:39:58.326Z,19.00
2022-08-21T15:42:27.909Z,17.65
2022-08-21T15:44:56.899Z,18.63
2022-08-21T15:47:32.780Z,16.17
2022-08-21T15:49:59.665Z,13.32
2022-08-21T15:52:26.732Z,22.70
2022-08-21T15:54:54.339Z,16.20
2022-08-21T15:57:24.459Z,21.27
2022-08-21T16:00:09.014Z,17.13
2022-08-21T16:02:40.799Z,21.25
2022-08-21T16:05:08.579Z,12.45
2022-08-21T16:07:35.397Z,17.98
2022-08-21T16:10:04.352Z,19.58
2022-08-21T16:12:38.272Z,19.02
2022-08-21T16:15:08.883Z,18.58
2022-08-21T16:20:09.474Z,17.73
2022-08-21T16:22:43.914Z,20.33
2022-08-21T16:25:13.405Z,19.98
2022-08-21T16:27:42.234Z,21.10
2022-08-21T16:30:11.034Z,23.30
2022-08-21T16:32:37.880Z,17.40
2022-08-21T16:35:05.614Z,14.48
2022-08-21T16:37:32.795Z,19.25
2022-08-21T16:39:59.815Z,19.30
2022-08-21T16:42:27.282Z,26.27
2022-08-21T16:44:55.331Z,20.45
2022-08-21T16:47:26.729Z,15.77
2022-08-21T16:49:54.901Z,18.50
2022-08-21T16:52:21.761Z,41.88
2022-08-21T16:54:48.574Z,15.57
2022-08-21T16:57:15.800Z,25.83
2022-08-21T16:59:42.847Z,21.27
2022-08-21T17:02:36.025Z,23.92
2022-08-21T17:05:03.713Z,24.95
2022-08-21T17:07:36.444Z,26.15
2022-08-21T17:10:05.812Z,20.58
2022-08-21T17:12:33.557Z,18.63
2022-08-21T17:15:06.104Z,19.17
2022-08-21T17:17:34.903Z,21.42
2022-08-21T17:20:02.157Z,16.33
2022-08-21T17:22:29.140Z,18.48
2022-08-21T17:24:56.173Z,18.67
2022-08-21T17:27:28.112Z,20.80
2022-08-21T17:29:57.523Z,19.33
2022-08-21T17:32:24.997Z,15.70
2022-08-21T17:34:52.183Z,20.92
2022-08-21T17:37:19.427Z,17.13
2022-08-21T17:39:46.273Z,24.00
2022-08-21T17:42:14.481Z,20.80
2022-08-21T17:44:43.924Z,22.05
2022-08-21T17:47:11.851Z,18.83
2022-08-21T17:49:39.026Z,15.27
2022-08-21T17:52:07.675Z,17.77
2022-08-21T17:54:36.481Z,26.17
2022-08-21T17:57:04.750Z,24.77
2022-08-21T17:59:32.417Z,27.15
2022-08-21T18:02:01.707Z,24.85
2022-08-21T18:04:29.631Z,26.33
2022-08-21T18:06:57.072Z,25.02
2022-08-21T18:09:28.128Z,32.47
2022-08-21T18:12:00.381Z,19.52
2022-08-21T18:14:34.200Z,28.05
2022-08-21T18:17:01.294Z,17.02
2022-08-21T18:19:28.393Z,28.27
2022-08-21T18:21:58.134Z,26.17
2022-08-21T18:24:27.302Z,25.65
2022-08-21T18:26:54.689Z,18.58
2022-08-21T18:29:22.395Z,17.27
2022-08-21T18:31:49.789Z,17.75
2022-08-21T18:34:20.351Z,19.08
2022-08-21T18:36:48.195Z,25.83
2022-08-21T18:39:35.463Z,19.33
2022-08-21T18:42:05.344Z,21.17
2022-08-21T18:44:32.531Z,37.10
2022-08-21T18:47:11.412Z,21.67
2022-08-21T18:49:39.304Z,19.95
2022-08-21T18:52:08.263Z,16.58
2022-08-21T18:54:37.388Z,18.08
2022-08-21T18:57:10.150Z,19.40
2022-08-21T18:59:38.060Z,21.73
2022-08-21T19:02:08.703Z,25.13
2022-08-21T19:04:44.197Z,24.02
2022-08-21T19:07:23.706Z,25.88
2022-08-21T19:10:21.097Z,20.25
2022-08-21T19:12:39.189Z,16.95
2022-08-21T19:15:08.513Z,24.75
2022-08-21T19:17:36.172Z,26.38
2022-08-21T19:20:25.373Z,22.00
2022-08-21T19:22:53.626Z,23.83
2022-08-21T19:28:11.936Z,18.23
2022-08-21T19:30:41.560Z,20.30
2022-08-21T19:33:10.752Z,21.92
2022-08-21T19:35:50.975Z,22.92
2022-08-21T19:38:20.300Z,16.92
2022-08-21T19:40:47.561Z,20.40
2022-08-21T19:43:14.555Z,20.02
2022-08-21T19:45:41.546Z,20.80
2022-08-21T19:48:09.270Z,17.52
2022-08-21T19:50:37.181Z,23.05
2022-08-21T19:53:04.989Z,22.10
2022-08-21T19:55:42.981Z,21.92
2022-08-21T19:58:22.755Z,22.77
2022-08-21T20:00:49.619Z,18.83
2022-08-21T20:03:18.131Z,19.05
2022-08-21T20:05:48.149Z,19.27
2022-08-21T20:08:20.515Z,19.08
2022-08-21T20:13:23.567Z,21.85
2022-08-21T20:15:51.044Z,26.40
2022-08-21T20:18:18.903Z,23.05
2022-08-21T20:20:47.643Z,19.50
2022-08-21T20:23:15.906Z,23.42
2022-08-21T20:25:44.484Z,19.75
2022-08-21T20:28:11.386Z,20.98
2022-08-21T20:30:38.523Z,16.25
2022-08-21T20:33:14.362Z,25.65
2022-08-21T20:35:43.672Z,24.08
2022-08-21T20:38:10.480Z,27.35
2022-08-21T20:40:41.392Z,20.20
2022-08-21T20:45:57.545Z,26.92
2022-08-21T20:48:28.522Z,26.55
2022-08-21T20:51:05.457Z,17.67
2022-08-21T20:53:51.228Z,22.50
2022-08-21T20:56:43.817Z,23.08
2022-08-21T20:59:22.138Z,19.95
2022-08-21T21:01:52.274Z,20.83
2022-08-21T21:04:34.767Z,21.10
2022-08-21T21:07:02.742Z,29.13
2022-08-21T21:09:42.888Z,21.73
2022-08-21T21:12:19.101Z,21.95
2022-08-21T21:14:59.624Z,22.67
2022-08-21T21:17:42.551Z,24.10
2022-08-21T21:22:58.604Z,22.95
2022-08-21T21:25:40.633Z,24.40
2022-08-21T21:28:13.134Z,21.17
2022-08-21T21:33:33.260Z,23.42
2022-08-21T21:36:12.472Z,20.50
2022-08-21T21:38:52.731Z,21.67
2022-08-21T21:41:25.392Z,27.65
2022-08-21T21:47:16.834Z,19.73
2022-08-21T21:50:08.659Z,25.35
2022-08-21T21:53:13.163Z,36.42
2022-08-21T21:56:02.877Z,26.55
2022-08-21T21:58:35.981Z,17.55
2022-08-21T22:04:03.805Z,25.77
2022-08-21T22:07:04.806Z,19.27
2022-08-21T22:09:46.801Z,21.40
2022-08-21T22:15:26.391Z,19.00
2022-08-21T22:18:21.255Z,31.02
2022-08-21T22:20:57.047Z,25.55
2022-08-21T22:23:30.186Z,32.78
2022-08-21T22:26:05.295Z,24.58
2022-08-21T22:28:39.473Z,24.05
2022-08-21T22:31:26.368Z,31.20
2022-08-21T22:34:22.733Z,24.42
2022-08-21T22:36:59.649Z,25.05
2022-08-21T22:42:25.929Z,30.85
2022-08-21T22:45:09.398Z,25.05
2022-08-21T22:47:44.803Z,28.65
2022-08-21T22:50:28.204Z,25.77
2022-08-21T22:52:58.531Z,27.60
2022-08-21T22:55:53.734Z,30.70
2022-08-21T22:58:53.711Z,25.92
2022-08-21T23:01:21.006Z,35.45
2022-08-21T23:03:54.270Z,25.98
2022-08-21T23:06:52.697Z,27.38
2022-08-21T23:09:28.372Z,35.60
2022-08-21T23:11:58.280Z,24.50
2022-08-21T23:14:25.921Z,29.73
2022-08-21T23:17:10.271Z,36.35
2022-08-21T23:20:04.742Z,23.45
2022-08-21T23:23:14.644Z,34.13
2022-08-21T23:26:12.386Z,27.55
2022-08-21T23:29:10.688Z,34.25
2022-08-21T23:32:15.916Z,27.65
2022-08-21T23:35:08.006Z,26.25
2022-08-21T23:37:51.601Z,18.83
2022-08-21T23:40:23.209Z,29.85
2022-08-21T23:43:05.388Z,28.40
2022-08-21T23:46:13.687Z,26.27
2022-08-21T23:49:18.653Z,20.50
2022-08-21T23:51:57.484Z,25.13
2022-08-21T23:54:46.191Z,28.42
